Time;durP1;ratioP1;P1;durP2;ratioP2;P2;SDS_P1;SDS_P2;PMS_P1;PMS_P2;Temp;Humidity;BMP_temperature;BMP_pressure;BME280_temperature;BME280_humidity;BME280_pressure;Samples;Min_cycle;Max_cycle;Signal;HPM_P1;HPM_P2
2022/12/10 00:01:14;;;;;;;36.10;16.52;;;-2.50;99.90;;;;;;5095899;28;20040;-79
2022/12/10 00:03:41;;;;;;;41.13;17.80;;;-2.50;99.90;;;;;;5094863;28;20522;-79
2022/12/10 00:06:11;;;;;;;37.38;16.75;;;-2.50;99.90;;;;;;5094921;28;20040;-79
2022/12/10 00:08:38;;;;;;;38.45;18.15;;;-2.50;99.90;;;;;;5094935;28;20502;-78
2022/12/10 00:11:07;;;;;;;44.67;18.42;;;-1.80;99.90;;;;;;5095420;28;20089;-80
2022/12/10 00:13:35;;;;;;;38.78;18.67;;;-2.50;99.90;;;;;;5111653;28;20047;-79
2022/12/10 00:16:04;;;;;;;39.28;17.58;;;-2.50;99.90;;;;;;5078204;28;20139;-80
2022/12/10 00:18:32;;;;;;;38.22;17.38;;;-2.50;99.90;;;;;;5110788;28;20060;-79
2022/12/10 00:21:01;;;;;;;42.22;18.35;;;-2.50;99.90;;;;;;5093561;28;20079;-80
2022/12/10 00:23:27;;;;;;;38.28;17.85;;;-2.50;99.90;;;;;;5093692;28;20128;-78
2022/12/10 00:25:54;;;;;;;37.10;16.65;;;-2.50;99.90;;;;;;5110713;28;20078;-80
2022/12/10 00:28:21;;;;;;;37.33;17.85;;;-2.50;99.90;;;;;;5093997;28;20043;-79
2022/12/10 00:30:47;;;;;;;39.10;17.02;;;-2.60;99.90;;;;;;5076662;28;20043;-80
2022/12/10 00:33:14;;;;;;;35.10;18.08;;;-2.60;99.90;;;;;;5076894;28;20102;-79
2022/12/10 00:35:41;;;;;;;36.60;17.30;;;-2.60;99.90;;;;;;5092376;28;20115;-79
2022/12/10 00:38:07;;;;;;;36.13;17.38;;;-2.60;99.90;;;;;;5066961;28;20032;-80
2022/12/10 00:40:34;;;;;;;38.50;16.85;;;-2.60;99.90;;;;;;5103869;28;20097;-80
2022/12/10 00:43:01;;;;;;;39.25;17.90;;;-2.60;99.90;;;;;;5055235;28;20051;-79
2022/12/10 00:45:27;;;;;;;38.75;18.20;;;-2.60;99.90;;;;;;5055545;28;20031;-80
2022/12/10 00:47:54;;;;;;;40.50;17.70;;;-2.60;99.90;;;;;;5084701;28;20097;-79
2022/12/10 00:50:20;;;;;;;36.25;17.30;;;-2.60;99.90;;;;;;5105302;28;20415;-79
2022/12/10 00:52:47;;;;;;;36.58;17.08;;;-2.60;99.90;;;;;;5092553;28;20472;-80
2022/12/10 00:55:16;;;;;;;35.60;17.63;;;-2.50;99.90;;;;;;5076148;28;20503;-80
2022/12/10 00:57:43;;;;;;;40.75;17.92;;;-2.50;99.90;;;;;;5076347;28;20036;-79
2022/12/10 01:00:10;;;;;;;40.65;17.55;;;-2.50;99.90;;;;;;5109314;28;20048;-80
2022/12/10 01:02:37;;;;;;;38.47;17.73;;;-2.50;99.90;;;;;;5075644;28;20040;-79
2022/12/10 01:05:04;;;;;;;40.97;18.38;;;-2.40;99.90;;;;;;5092900;28;20042;-80
2022/12/10 01:07:31;;;;;;;46.50;19.38;;;-2.40;99.90;;;;;;5093206;28;20040;-79
2022/12/10 01:09:57;;;;;;;39.00;17.17;;;-2.40;99.90;;;;;;5060055;28;20044;-80
2022/12/10 01:12:24;;;;;;;40.65;17.60;;;-2.30;99.90;;;;;;5072838;28;20086;-79
2022/12/10 01:14:51;;;;;;;40.38;18.05;;;-2.30;99.90;;;;;;5071960;28;20098;-79
2022/12/10 01:17:17;;;;;;;40.58;19.30;;;-2.30;99.90;;;;;;5072760;28;20056;-79
2022/12/10 01:19:44;;;;;;;40.42;18.02;;;-2.20;99.90;;;;;;5088935;28;20051;-79
2022/12/10 01:22:11;;;;;;;42.97;18.77;;;-2.20;99.90;;;;;;5089933;28;20036;-80
2022/12/10 01:24:37;;;;;;;43.17;18.60;;;-1.60;99.90;;;;;;5076266;28;20036;-80
2022/12/10 01:27:04;;;;;;;46.83;19.83;;;-2.10;99.90;;;;;;5093121;28;20040;-80
2022/12/10 01:29:31;;;;;;;45.33;19.38;;;-2.10;99.90;;;;;;5092858;28;20130;-80
2022/12/10 01:31:58;;;;;;;41.97;19.08;;;-2.10;99.90;;;;;;5092922;28;20051;-80
2022/12/10 01:34:25;;;;;;;43.00;19.27;;;-2.00;99.90;;;;;;5109185;28;20055;-80
2022/12/10 01:36:53;;;;;;;43.03;18.52;;;-2.00;99.90;;;;;;5092168;28;20044;-80
2022/12/10 01:39:21;;;;;;;42.80;19.40;;;-2.00;99.90;;;;;;5109101;28;20052;-80
2022/12/10 01:41:54;;;;;;;40.58;18.85;;;-2.00;99.90;;;;;;5092688;28;20040;-80
2022/12/10 01:44:21;;;;;;;39.42;18.20;;;-2.00;99.90;;;;;;5109493;28;20050;-80
2022/12/10 01:46:50;;;;;;;45.60;19.88;;;-1.90;99.90;;;;;;5109470;28;20043;-79
2022/12/10 01:49:19;;;;;;;45.33;19.40;;;-2.00;99.90;;;;;;5092893;28;20040;-80
2022/12/10 01:51:50;;;;;;;43.45;19.55;;;-2.00;99.90;;;;;;5109363;28;20048;-80
2022/12/10 01:54:21;;;;;;;43.97;19.13;;;-2.00;99.90;;;;;;5092487;28;20137;-80
2022/12/10 01:56:54;;;;;;;46.13;19.35;;;-1.70;99.90;;;;;;5108811;28;20044;-80
2022/12/10 01:59:25;;;;;;;38.75;18.40;;;-2.00;99.90;;;;;;5108683;28;20052;-80
2022/12/10 02:02:13;;;;;;;41.45;19.45;;;-2.00;99.90;;;;;;5109274;28;20151;-79
2022/12/10 02:05:11;;;;;;;38.75;17.85;;;-2.10;99.90;;;;;;5109222;28;20515;-80
2022/12/10 02:07:37;;;;;;;41.92;19.27;;;-2.10;99.90;;;;;;5093084;28;20048;-80
2022/12/10 02:10:10;;;;;;;48.53;20.30;;;-2.10;99.90;;;;;;5109345;28;20117;-80
2022/12/10 02:12:44;;;;;;;44.33;19.35;;;-2.20;99.90;;;;;;5094110;28;20150;-79
2022/12/10 02:15:29;;;;;;;43.85;19.30;;;-2.20;99.90;;;;;;5095362;28;20460;-79
2022/12/10 02:18:02;;;;;;;45.33;20.15;;;-2.20;99.90;;;;;;5098475;28;20059;-80
2022/12/10 02:20:36;;;;;;;40.22;18.38;;;-2.20;99.90;;;;;;5099564;28;20507;-80
2022/12/10 02:23:04;;;;;;;44.65;18.48;;;-2.20;99.90;;;;;;5112008;28;20090;-79
2022/12/10 02:26:01;;;;;;;48.22;19.38;;;-2.30;99.90;;;;;;5095923;28;20153;-80
2022/12/10 02:28:40;;;;;;;49.85;20.15;;;-2.30;99.90;;;;;;5095859;28;20040;-80
2022/12/10 02:31:10;;;;;;;43.25;18.92;;;-2.30;99.90;;;;;;5111947;28;20079;-80
2022/12/10 02:33:41;;;;;;;47.25;19.00;;;-2.30;99.90;;;;;;5095716;28;20497;-80
2022/12/10 02:36:09;;;;;;;45.63;19.83;;;-2.40;99.90;;;;;;5111768;28;20043;-80
2022/12/10 02:38:39;;;;;;;44.17;20.42;;;-2.40;99.90;;;;;;5095622;28;20044;-80
2022/12/10 02:41:11;;;;;;;39.53;18.48;;;-2.40;99.90;;;;;;5095404;28;20048;-80
2022/12/10 02:43:38;;;;;;;50.30;19.58;;;-2.40;99.90;;;;;;5096036;28;20043;-80
2022/12/10 02:46:06;;;;;;;42.17;18.02;;;-2.40;99.90;;;;;;5079088;28;20039;-79
2022/12/10 02:48:34;;;;;;;42.90;19.85;;;-2.40;99.90;;;;;;5096365;28;20175;-80
2022/12/10 02:51:01;;;;;;;45.53;19.98;;;-2.40;99.90;;;;;;5095635;28;20089;-79
2022/12/10 02:53:28;;;;;;;45.13;20.60;;;-2.50;99.90;;;;;;5112335;28;20044;-79
2022/12/10 02:56:07;;;;;;;51.42;20.75;;;-2.50;99.90;;;;;;5094569;28;20515;-80
2022/12/10 02:58:58;;;;;;;44.05;18.83;;;-2.40;99.90;;;;;;5095259;28;20101;-80
2022/12/10 03:01:36;;;;;;;46.53;21.27;;;-2.40;99.90;;;;;;5095437;28;20404;-79
2022/12/10 03:04:23;;;;;;;45.33;18.65;;;-2.50;99.90;;;;;;5095168;28;20086;-79
2022/12/10 03:06:58;;;;;;;50.08;20.33;;;-2.50;99.90;;;;;;5096050;28;20035;-79
2022/12/10 03:09:36;;;;;;;52.65;21.35;;;-2.50;99.90;;;;;;5096387;28;20086;-80
2022/12/10 03:12:13;;;;;;;48.03;19.92;;;-2.50;99.90;;;;;;5095436;28;20135;-79
2022/12/10 03:14:41;;;;;;;47.63;19.17;;;-2.50;99.90;;;;;;5095186;28;20051;-79
2022/12/10 03:17:09;;;;;;;45.20;19.95;;;-2.50;99.90;;;;;;5061224;28;20423;-79
2022/12/10 03:19:40;;;;;;;44.92;18.13;;;-2.60;99.90;;;;;;5093966;28;20044;-79
2022/12/10 03:22:10;;;;;;;45.83;19.15;;;-1.80;99.90;;;;;;5094001;28;20526;-79
2022/12/10 03:24:37;;;;;;;49.95;19.73;;;-2.60;99.90;;;;;;5109701;28;20119;-79
2022/12/10 03:27:06;;;;;;;47.63;20.30;;;-2.60;99.90;;;;;;5110772;28;20040;-79
2022/12/10 03:29:47;;;;;;;49.90;20.00;;;-2.60;99.90;;;;;;5094531;28;20587;-80
2022/12/10 03:32:15;;;;;;;48.53;18.63;;;-2.20;99.90;;;;;;5094591;28;20075;-79
2022/12/10 03:34:43;;;;;;;47.20;19.13;;;-2.70;99.90;;;;;;5094347;28;20043;-80
2022/12/10 03:37:12;;;;;;;47.67;20.48;;;-2.70;99.90;;;;;;5110960;28;20048;-80
2022/12/10 03:39:40;;;;;;;49.95;19.30;;;-2.60;99.90;;;;;;5094589;28;20032;-80
2022/12/10 03:42:07;;;;;;;50.53;21.13;;;-2.60;99.90;;;;;;5094420;28;20047;-80
2022/12/10 03:44:40;;;;;;;49.00;20.42;;;-2.70;99.90;;;;;;5094709;28;20043;-79
2022/12/10 03:47:10;;;;;;;57.40;21.08;;;-1.90;99.90;;;;;;5111558;28;20040;-80
2022/12/10 03:49:36;;;;;;;49.40;20.95;;;-2.60;99.90;;;;;;5111980;28;20051;-80
2022/12/10 03:52:04;;;;;;;48.42;20.30;;;-2.60;99.90;;;;;;5094854;28;20040;-79
2022/12/10 03:54:30;;;;;;;47.78;20.60;;;-2.50;99.90;;;;;;5094543;28;20445;-79
2022/12/10 03:56:57;;;;;;;56.17;21.48;;;-2.50;99.90;;;;;;5060948;28;20035;-80
2022/12/10 03:59:24;;;;;;;51.75;21.58;;;-2.50;99.90;;;;;;5110519;28;20044;-79
2022/12/10 04:01:50;;;;;;;55.58;22.70;;;-2.40;99.90;;;;;;5077631;28;20721;-79
2022/12/10 04:04:17;;;;;;;51.97;20.95;;;-2.40;99.90;;;;;;5077305;28;20154;-80
2022/12/10 04:06:44;;;;;;;54.60;21.45;;;-2.30;99.90;;;;;;5078214;28;20125;-79
2022/12/10 04:09:13;;;;;;;54.92;21.05;;;-2.30;99.90;;;;;;5093937;28;20612;-80
2022/12/10 04:11:39;;;;;;;52.25;22.10;;;-2.30;99.90;;;;;;5093829;28;20131;-79
2022/12/10 04:16:54;;;;;;;53.15;21.75;;;-2.30;99.90;;;;;;5110498;28;20071;-79
2022/12/10 04:19:21;;;;;;;48.10;21.85;;;-2.30;99.90;;;;;;5093082;28;20040;-80
2022/12/10 04:27:30;;;;;;;49.70;21.13;;;-2.30;99.90;;;;;;5095796;28;20051;-80
2022/12/10 04:29:56;;;;;;;;;;;-2.30;99.90;;;;;;5093858;28;20040;-80
2022/12/10 04:32:25;;;;;;;58.80;23.20;;;-2.30;99.90;;;;;;5109101;28;20508;-79
2022/12/10 04:34:52;;;;;;;57.85;23.65;;;-2.30;99.90;;;;;;5092805;28;20044;-80
2022/12/10 04:37:20;;;;;;;58.50;22.58;;;-2.30;99.90;;;;;;5093063;28;20377;-80
2022/12/10 04:39:48;;;;;;;52.35;23.38;;;-2.30;99.90;;;;;;5076270;28;20063;-80
2022/12/10 04:42:15;;;;;;;59.33;23.52;;;-2.40;99.90;;;;;;5076495;28;20036;-79
2022/12/10 04:44:42;;;;;;;56.85;23.13;;;-2.30;99.90;;;;;;5093483;28;20458;-79
2022/12/10 04:47:10;;;;;;;57.75;23.63;;;-2.30;99.90;;;;;;5110353;28;20032;-79
2022/12/10 04:49:37;;;;;;;50.17;22.90;;;-2.30;99.90;;;;;;5093664;28;20044;-79
2022/12/10 04:52:05;;;;;;;59.80;23.52;;;-2.20;99.90;;;;;;5093266;28;20044;-80
2022/12/10 04:54:32;;;;;;;52.55;23.15;;;-2.30;99.90;;;;;;5109426;28;20032;-79
2022/12/10 04:56:58;;;;;;;66.13;23.85;;;-2.30;99.90;;;;;;5076373;28;20149;-80
2022/12/10 04:59:25;;;;;;;60.97;24.05;;;-2.30;99.90;;;;;;5092325;28;20036;-79
2022/12/10 05:01:52;;;;;;;55.05;23.10;;;-2.30;99.90;;;;;;5092684;28;20111;-79
2022/12/10 05:04:19;;;;;;;57.38;22.88;;;-2.40;99.90;;;;;;5109354;28;20430;-80
2022/12/10 05:06:48;;;;;;;59.67;25.27;;;-2.30;99.90;;;;;;5076116;28;20076;-80
2022/12/10 05:09:16;;;;;;;60.08;24.23;;;-2.30;99.90;;;;;;5092489;28;20047;-79
2022/12/10 05:11:44;;;;;;;63.88;25.77;;;-2.30;99.90;;;;;;5109008;28;20036;-80
2022/12/10 05:14:12;;;;;;;62.67;24.65;;;-2.30;99.90;;;;;;5109279;28;20181;-80
2022/12/10 05:16:40;;;;;;;56.22;24.30;;;-2.30;99.90;;;;;;5091693;28;20091;-80
2022/12/10 05:19:08;;;;;;;59.10;24.63;;;-2.30;99.90;;;;;;5109235;28;20054;-80
2022/12/10 05:24:20;;;;;;;55.10;22.92;;;-2.30;99.90;;;;;;5094477;28;20235;-80
2022/12/10 05:26:50;;;;;;;58.85;24.02;;;-2.30;99.90;;;;;;5059065;28;20097;-79
2022/12/10 05:29:18;;;;;;;60.47;24.08;;;-2.30;99.90;;;;;;5092153;28;20138;-79
2022/12/10 05:31:45;;;;;;;57.33;24.05;;;-2.30;99.90;;;;;;5091439;28;20036;-80
2022/12/10 05:34:12;;;;;;;61.72;24.02;;;-1.60;99.90;;;;;;5091633;28;20476;-80
2022/12/10 05:36:39;;;;;;;58.47;23.50;;;-2.40;99.90;;;;;;5091721;28;20107;-79
2022/12/10 05:39:06;;;;;;;59.00;24.65;;;-2.00;99.90;;;;;;5075093;28;20044;-80
2022/12/10 05:41:36;;;;;;;57.40;23.20;;;-2.50;99.90;;;;;;5091798;28;20040;-79
2022/12/10 05:44:02;;;;;;;55.20;24.58;;;-2.50;99.90;;;;;;5108820;28;20123;-79
2022/12/10 05:46:31;;;;;;;64.90;24.15;;;-2.00;99.90;;;;;;5108192;28;20147;-80
2022/12/10 05:49:00;;;;;;;64.15;25.13;;;-2.50;99.90;;;;;;5108536;28;20074;-80
2022/12/10 05:51:31;;;;;;;59.13;24.38;;;-2.50;99.90;;;;;;5091859;28;20043;-80
2022/12/10 05:53:58;;;;;;;64.10;25.02;;;-2.60;99.90;;;;;;5108585;28;20032;-80
2022/12/10 05:56:26;;;;;;;56.95;23.55;;;-2.60;99.90;;;;;;5074723;28;20119;-80
2022/12/10 05:58:56;;;;;;;58.17;24.23;;;-2.60;99.90;;;;;;5091743;28;20652;-80
2022/12/10 06:01:26;;;;;;;58.28;24.00;;;-2.60;99.90;;;;;;5107996;28;20040;-80
2022/12/10 06:03:53;;;;;;;64.13;24.23;;;-2.60;99.90;;;;;;5108316;28;20039;-80
2022/12/10 06:06:22;;;;;;;61.63;24.77;;;-2.50;99.90;;;;;;5078114;28;20035;-80
2022/12/10 06:08:50;;;;;;;56.47;24.83;;;-2.60;99.90;;;;;;5091601;28;20488;-80
2022/12/10 06:11:18;;;;;;;63.15;25.45;;;-2.60;99.90;;;;;;5091563;28;21470;-79
2022/12/10 06:13:45;;;;;;;60.50;24.80;;;-2.60;99.90;;;;;;5089219;28;20040;-80
2022/12/10 06:16:13;;;;;;;61.10;23.85;;;-2.60;99.90;;;;;;5108661;28;20048;-80
2022/12/10 06:18:41;;;;;;;58.33;23.75;;;-2.60;99.90;;;;;;5091533;28;20694;-80
2022/12/10 06:21:18;;;;;;;58.95;25.83;;;-2.60;99.90;;;;;;5091457;28;20036;-80
2022/12/10 06:23:46;;;;;;;58.22;25.40;;;-2.70;99.90;;;;;;5107907;28;20031;-79
2022/12/10 06:26:15;;;;;;;62.22;25.70;;;-2.70;99.90;;;;;;5091463;28;20148;-79
2022/12/10 06:28:44;;;;;;;65.82;26.48;;;-2.70;99.90;;;;;;5091338;28;20042;-80
2022/12/10 06:31:11;;;;;;;64.20;24.98;;;-2.70;99.90;;;;;;5108189;28;20829;-79
2022/12/10 06:33:38;;;;;;;60.00;24.38;;;-2.70;99.90;;;;;;5107692;28;20194;-79
2022/12/10 06:36:10;;;;;;;64.28;25.58;;;-2.70;99.90;;;;;;5092161;28;20047;-80
2022/12/10 06:38:37;;;;;;;65.95;23.60;;;-2.70;99.90;;;;;;5107550;28;20094;-80
2022/12/10 06:41:06;;;;;;;64.65;25.13;;;-2.70;99.90;;;;;;5074338;28;20043;-80
2022/12/10 06:43:33;;;;;;;74.18;25.75;;;-2.80;99.90;;;;;;5090583;28;20032;-80
2022/12/10 06:46:07;;;;;;;66.55;26.20;;;-2.80;99.90;;;;;;5090644;28;20040;-80
2022/12/10 06:48:35;;;;;;;58.80;23.67;;;-2.80;99.90;;;;;;5107511;28;20086;-79
2022/12/10 06:51:02;;;;;;;67.35;24.25;;;-2.80;99.90;;;;;;5107522;28;20044;-80
2022/12/10 06:53:30;;;;;;;59.17;26.00;;;-2.80;99.90;;;;;;5090711;28;20397;-79
2022/12/10 06:56:01;;;;;;;61.17;25.17;;;-2.80;99.90;;;;;;5074210;28;20036;-80
2022/12/10 06:58:28;;;;;;;72.90;27.00;;;-2.80;99.90;;;;;;5075651;28;20040;-80
2022/12/10 07:01:09;;;;;;;65.32;24.30;;;-2.80;99.90;;;;;;5094544;28;20528;-80
2022/12/10 07:03:37;;;;;;;64.32;25.20;;;-2.80;99.90;;;;;;5111708;28;20109;-80
2022/12/10 07:06:05;;;;;;;68.53;26.27;;;-2.80;99.90;;;;;;5110887;28;20411;-79
2022/12/10 07:08:31;;;;;;;60.78;24.55;;;-2.70;99.90;;;;;;5094202;28;20111;-78
2022/12/10 07:10:58;;;;;;;68.70;25.90;;;-2.70;99.90;;;;;;5111302;28;20122;-80
2022/12/10 07:13:25;;;;;;;69.95;24.88;;;-2.70;99.90;;;;;;5094289;28;20035;-80
2022/12/10 07:15:52;;;;;;;65.63;25.92;;;-2.70;99.90;;;;;;5077654;28;20082;-80
2022/12/10 07:18:19;;;;;;;67.53;25.20;;;-2.60;99.90;;;;;;5094236;28;20523;-79
2022/12/10 07:20:45;;;;;;;75.75;26.92;;;-2.60;99.90;;;;;;5093808;28;20106;-80
2022/12/10 07:23:12;;;;;;;75.55;26.20;;;-2.50;99.90;;;;;;5110741;28;20757;-80
2022/12/10 07:25:39;;;;;;;71.20;24.98;;;-2.50;99.90;;;;;;5077161;28;20388;-80
2022/12/10 07:28:05;;;;;;;65.25;25.70;;;-2.10;99.90;;;;;;5060532;28;20062;-79
2022/12/10 07:30:33;;;;;;;70.00;25.67;;;-2.60;99.90;;;;;;5077124;28;20046;-79
2022/12/10 07:32:59;;;;;;;67.30;25.85;;;-2.60;99.90;;;;;;5077467;28;20032;-79
2022/12/10 07:35:26;;;;;;;72.20;25.13;;;-2.60;99.90;;;;;;5077748;28;20066;-79
2022/12/10 07:37:53;;;;;;;65.15;25.67;;;-2.60;99.90;;;;;;5109623;28;20036;-79
2022/12/10 07:40:19;;;;;;;68.28;26.08;;;-2.60;99.90;;;;;;5060390;28;20067;-79
2022/12/10 07:42:46;;;;;;;81.28;28.23;;;-2.60;99.90;;;;;;5093349;28;20043;-79
2022/12/10 07:45:13;;;;;;;78.00;28.08;;;-2.60;99.90;;;;;;5076931;28;20042;-79
2022/12/10 07:47:39;;;;;;;83.53;29.88;;;-2.60;99.90;;;;;;5109534;28;20028;-79
2022/12/10 07:50:06;;;;;;;81.45;28.45;;;-2.60;99.90;;;;;;5093576;28;20048;-79
2022/12/10 07:52:33;;;;;;;78.55;28.05;;;-2.60;99.90;;;;;;5089879;28;20032;-79
2022/12/10 07:55:00;;;;;;;75.13;27.27;;;-2.50;99.90;;;;;;5088237;28;20036;-80
2022/12/10 07:57:29;;;;;;;79.43;28.55;;;-2.50;99.90;;;;;;5053302;28;20492;-80
2022/12/10 07:59:55;;;;;;;70.72;27.27;;;-2.60;99.90;;;;;;5086173;28;20134;-80
2022/12/10 08:02:22;;;;;;;74.30;24.83;;;-2.60;99.90;;;;;;5068100;28;20115;-79
2022/12/10 08:04:49;;;;;;;62.88;24.23;;;-2.50;99.90;;;;;;5067425;28;20028;-79
2022/12/10 08:07:15;;;;;;;51.78;22.17;;;-2.60;99.90;;;;;;5101558;28;20048;-80
2022/12/10 08:09:42;;;;;;;54.30;22.55;;;-2.60;99.90;;;;;;5088740;28;20043;-79
2022/12/10 08:12:08;;;;;;;56.38;22.38;;;-2.60;99.90;;;;;;5110448;28;20404;-80
2022/12/10 08:14:35;;;;;;;56.70;23.08;;;-2.40;99.90;;;;;;5093293;28;20048;-80
2022/12/10 08:17:02;;;;;;;58.30;22.70;;;-2.50;99.90;;;;;;5058369;28;20083;-79
2022/12/10 08:19:29;;;;;;;55.30;24.15;;;-2.50;99.90;;;;;;5072532;28;20893;-80
2022/12/10 08:21:55;;;;;;;57.40;23.63;;;-1.80;99.90;;;;;;5092078;28;20039;-79
2022/12/10 08:24:22;;;;;;;58.45;22.13;;;-2.50;99.90;;;;;;5110171;28;20039;-81
2022/12/10 08:26:49;;;;;;;59.67;23.33;;;-2.40;99.90;;;;;;5093775;28;20059;-79
2022/12/10 08:29:15;;;;;;;54.22;22.85;;;-2.50;99.90;;;;;;5093248;28;20058;-80
2022/12/10 08:31:42;;;;;;;56.78;22.67;;;-2.50;99.90;;;;;;5111526;28;20048;-80
2022/12/10 08:34:17;;;;;;;55.17;22.60;;;-2.50;99.90;;;;;;5095025;28;20047;-80
2022/12/10 08:36:45;;;;;;;57.88;21.23;;;-2.50;99.90;;;;;;5112781;28;20044;-80
2022/12/10 08:39:16;;;;;;;51.95;20.60;;;-1.90;99.90;;;;;;5096141;28;20044;-80
2022/12/10 08:41:44;;;;;;;66.80;25.42;;;-2.40;99.90;;;;;;5112324;28;20588;-80
2022/12/10 08:44:11;;;;;;;60.53;23.23;;;-1.60;99.90;;;;;;5111975;28;20047;-80
2022/12/10 08:46:38;;;;;;;56.45;22.40;;;-2.40;99.90;;;;;;5094411;28;20091;-80
2022/12/10 08:49:09;;;;;;;65.85;24.45;;;-2.30;99.90;;;;;;5076608;28;20068;-80
2022/12/10 08:51:36;;;;;;;67.35;23.58;;;-2.30;99.90;;;;;;5094129;28;20070;-80
2022/12/10 08:54:02;;;;;;;63.63;23.20;;;-2.30;99.90;;;;;;5094170;28;20067;-80
2022/12/10 08:56:29;;;;;;;64.40;23.83;;;-2.30;99.90;;;;;;5077956;28;20046;-80
2022/12/10 08:58:56;;;;;;;65.10;24.80;;;-2.20;99.90;;;;;;5077268;28;20101;-80
2022/12/10 09:01:22;;;;;;;64.03;23.80;;;-2.20;99.90;;;;;;5077246;28;20480;-80
2022/12/10 09:03:50;;;;;;;61.95;24.77;;;-2.20;99.90;;;;;;5060546;28;20032;-77
2022/12/10 09:06:20;;;;;;;60.67;23.02;;;-2.20;99.90;;;;;;5112323;28;20047;-79
2022/12/10 09:08:47;;;;;;;56.42;22.80;;;-2.10;99.90;;;;;;5094792;28;20054;-79
2022/12/10 09:11:17;;;;;;;60.33;24.23;;;-1.40;99.90;;;;;;5093560;28;20044;-80
2022/12/10 09:13:44;;;;;;;54.78;22.90;;;-2.00;99.90;;;;;;5091307;28;20036;-80
2022/12/10 09:16:11;;;;;;;63.42;24.67;;;-2.00;99.90;;;;;;5089023;28;20413;-78
2022/12/10 09:18:39;;;;;;;60.72;23.30;;;-2.00;99.90;;;;;;5083965;28;20117;-80
2022/12/10 09:21:12;;;;;;;55.95;22.67;;;-1.80;99.90;;;;;;5087291;28;20098;-80
2022/12/10 09:23:40;;;;;;;67.03;24.67;;;-1.90;99.90;;;;;;5088395;28;20047;-80
2022/12/10 09:26:08;;;;;;;60.95;23.33;;;-1.90;99.90;;;;;;5091006;28;20048;-79
2022/12/10 09:28:36;;;;;;;57.88;22.15;;;-1.90;99.90;;;;;;5090429;28;20043;-81
2022/12/10 09:31:06;;;;;;;60.03;23.33;;;-1.80;99.90;;;;;;5078651;28;20051;-79
2022/12/10 09:33:33;;;;;;;62.45;24.67;;;-1.80;99.90;;;;;;5093908;28;20047;-80
2022/12/10 09:35:59;;;;;;;58.00;23.10;;;-1.80;99.90;;;;;;5102984;28;20046;-80
2022/12/10 09:38:26;;;;;;;57.00;23.95;;;-1.70;99.90;;;;;;5077673;28;20507;-79
2022/12/10 09:41:02;;;;;;;60.38;23.88;;;-1.70;99.90;;;;;;5074126;28;20040;-78
2022/12/10 09:43:41;;;;;;;55.70;23.70;;;-1.70;99.90;;;;;;5108110;28;20075;-80
2022/12/10 09:46:29;;;;;;;55.92;23.35;;;-1.70;99.90;;;;;;5090894;28;20036;-80
2022/12/10 09:49:29;;;;;;;55.22;22.30;;;-1.60;99.90;;;;;;5091257;28;20039;-80
2022/12/10 09:52:01;;;;;;;60.90;23.70;;;-1.60;99.90;;;;;;5090824;28;20116;-79
2022/12/10 09:54:34;;;;;;;57.30;24.83;;;-1.60;99.90;;;;;;5107897;28;20423;-80
2022/12/10 09:57:03;;;;;;;63.67;25.02;;;-1.50;99.90;;;;;;5091029;28;20507;-79
2022/12/10 09:59:33;;;;;;;57.47;24.30;;;-1.20;99.90;;;;;;5090968;28;20381;-80
2022/12/10 10:02:25;;;;;;;61.15;22.63;;;-1.50;99.90;;;;;;5108614;28;20051;-79
2022/12/10 10:05:00;;;;;;;61.78;25.25;;;-1.40;99.90;;;;;;5091059;28;20109;-80
2022/12/10 10:07:30;;;;;;;60.15;23.30;;;-1.40;99.90;;;;;;5097343;28;20032;-80
2022/12/10 10:10:00;;;;;;;58.38;23.95;;;-0.80;99.90;;;;;;5090455;28;20520;-80
2022/12/10 10:12:28;;;;;;;58.55;22.48;;;-1.30;99.90;;;;;;5122906;28;20096;-79
2022/12/10 10:14:54;;;;;;;60.67;23.88;;;-1.30;99.90;;;;;;5111154;28;20116;-80
2022/12/10 10:17:35;;;;;;;61.78;25.27;;;-1.00;99.90;;;;;;5111076;28;20052;-80
2022/12/10 10:20:02;;;;;;;64.75;25.95;;;-1.20;99.90;;;;;;5089553;28;20078;-79
2022/12/10 10:22:30;;;;;;;59.42;23.95;;;-1.20;99.90;;;;;;5074471;28;20051;-80
2022/12/10 10:24:57;;;;;;;57.67;23.85;;;-0.10;99.90;;;;;;5085637;28;20033;-77
2022/12/10 10:27:28;;;;;;;57.15;24.40;;;-1.20;99.90;;;;;;5083876;28;20042;-80
2022/12/10 10:29:57;;;;;;;65.65;25.35;;;-1.10;99.90;;;;;;5090787;28;20508;-81
2022/12/10 10:32:47;;;;;;;63.95;23.60;;;-1.20;99.90;;;;;;5091399;28;20488;-80
2022/12/10 10:35:43;;;;;;;58.50;23.88;;;-1.20;99.90;;;;;;5111536;28;20066;-80
2022/12/10 10:38:28;;;;;;;62.55;25.13;;;-1.20;99.90;;;;;;5091484;28;20052;-80
2022/12/10 10:41:04;;;;;;;55.28;23.50;;;-1.20;99.90;;;;;;5080052;28;20567;-79
2022/12/10 10:43:44;;;;;;;59.03;23.25;;;-1.20;99.90;;;;;;5091336;28;20155;-80
2022/12/10 10:46:22;;;;;;;56.72;23.75;;;-1.20;99.90;;;;;;5090316;28;20039;-79
2022/12/10 10:48:49;;;;;;;63.05;25.17;;;-1.20;99.90;;;;;;5109058;28;20038;-81
2022/12/10 10:51:23;;;;;;;60.08;24.27;;;-1.10;99.90;;;;;;5112324;28;20051;-79
2022/12/10 10:53:56;;;;;;;63.47;25.80;;;-1.10;99.90;;;;;;5101187;28;20081;-80
2022/12/10 10:56:39;;;;;;;61.20;24.23;;;-1.20;99.90;;;;;;5130318;28;20043;-80
2022/12/10 10:59:17;;;;;;;61.30;24.42;;;-1.10;99.90;;;;;;5093414;28;20040;-80
2022/12/10 11:01:48;;;;;;;63.15;24.60;;;-1.10;99.90;;;;;;5094135;28;20040;-80
2022/12/10 11:04:18;;;;;;;61.05;24.88;;;-1.10;99.90;;;;;;5110576;28;20165;-79
2022/12/10 11:06:45;;;;;;;54.63;23.35;;;-1.00;99.90;;;;;;5112472;28;20060;-79
2022/12/10 11:09:21;;;;;;;60.40;24.38;;;-1.00;99.90;;;;;;5093073;28;20486;-80
2022/12/10 11:11:57;;;;;;;59.38;25.27;;;-0.90;99.90;;;;;;5075220;28;20036;-79
2022/12/10 11:14:32;;;;;;;60.35;25.65;;;-0.90;99.90;;;;;;5076593;28;20512;-79
2022/12/10 11:17:23;;;;;;;56.35;22.98;;;-0.80;99.90;;;;;;5075354;28;20539;-79
2022/12/10 11:19:57;;;;;;;60.08;24.10;;;-0.80;99.90;;;;;;5087177;28;20047;-77
2022/12/10 11:22:27;;;;;;;62.80;23.60;;;-0.80;99.90;;;;;;5093206;28;20028;-80
2022/12/10 11:24:54;;;;;;;55.45;25.08;;;-0.80;99.90;;;;;;5110360;28;20052;-79
2022/12/10 11:27:50;;;;;;;59.08;23.75;;;-0.10;99.90;;;;;;5109882;28;20080;-79
2022/12/10 11:30:23;;;;;;;59.30;23.75;;;-0.70;99.90;;;;;;5063175;28;20147;-79
2022/12/10 11:33:32;;;;;;;63.53;24.27;;;-0.60;99.90;;;;;;5093670;28;20040;-79
2022/12/10 11:36:19;;;;;;;53.90;22.95;;;-0.60;99.90;;;;;;5093054;28;20467;-79
2022/12/10 11:38:56;;;;;;;60.25;23.50;;;-0.50;99.90;;;;;;5093610;28;20054;-79
2022/12/10 11:41:48;;;;;;;59.03;24.85;;;-0.50;99.90;;;;;;5092731;28;20127;-79
2022/12/10 11:44:24;;;;;;;57.00;24.40;;;-0.50;99.90;;;;;;5087786;28;20132;-79
2022/12/10 11:46:51;;;;;;;59.28;24.38;;;-0.60;99.90;;;;;;5109412;28;20040;-79
2022/12/10 11:49:26;;;;;;;63.72;25.00;;;-0.30;99.90;;;;;;5109345;28;20488;-79
2022/12/10 11:52:04;;;;;;;67.25;24.42;;;-0.50;99.90;;;;;;5092219;28;20043;-80
2022/12/10 11:54:42;;;;;;;58.88;25.15;;;-0.50;99.90;;;;;;5095863;28;20097;-80
2022/12/10 11:57:17;;;;;;;58.63;24.25;;;-0.50;99.90;;;;;;5092511;28;20100;-80
2022/12/10 11:59:53;;;;;;;58.60;24.67;;;-0.50;99.90;;;;;;5103272;28;20048;-80
2022/12/10 12:02:44;;;;;;;56.55;24.92;;;-0.50;99.90;;;;;;5103622;28;20043;-80
2022/12/10 12:05:28;;;;;;;55.90;24.08;;;-0.40;99.90;;;;;;5108819;28;20508;-78
2022/12/10 12:08:19;;;;;;;56.78;25.48;;;-0.40;99.90;;;;;;5092846;28;20036;-80
2022/12/10 12:11:32;;;;;;;61.88;25.30;;;-0.40;99.90;;;;;;5109114;28;20047;-80
2022/12/10 12:14:19;;;;;;;63.25;25.15;;;-0.30;99.90;;;;;;5091556;28;20040;-79
2022/12/10 12:17:06;;;;;;;63.35;26.42;;;0.00;99.90;;;;;;5110056;28;20488;-79
2022/12/10 12:19:44;;;;;;;57.72;24.90;;;-0.30;99.90;;;;;;5109313;28;20112;-79
2022/12/10 12:22:37;;;;;;;63.38;27.27;;;-0.30;99.90;;;;;;5072559;28;20201;-79
2022/12/10 12:25:36;;;;;;;60.90;27.48;;;-0.20;99.90;;;;;;5096295;28;20047;-79
2022/12/10 12:28:15;;;;;;;59.80;25.73;;;-0.30;99.90;;;;;;5085621;28;20080;-79
2022/12/10 12:30:45;;;;;;;53.45;23.75;;;0.90;99.90;;;;;;5109241;28;20044;-79
2022/12/10 12:33:24;;;;;;;60.25;25.17;;;-0.20;99.90;;;;;;5092315;28;20040;-79
2022/12/10 12:36:06;;;;;;;65.85;25.45;;;-0.20;99.90;;;;;;5109383;28;20050;-79
2022/12/10 12:39:15;;;;;;;60.17;25.40;;;-0.20;99.90;;;;;;5093414;28;20063;-74
2022/12/10 12:42:12;;;;;;;62.63;25.80;;;-0.20;99.90;;;;;;5073098;28;20060;-74
2022/12/10 12:45:11;;;;;;;66.50;25.40;;;-0.20;99.90;;;;;;5093886;28;20495;-74
2022/12/10 12:48:22;;;;;;;63.03;27.20;;;-0.20;99.90;;;;;;5093297;28;20059;-74
2022/12/10 12:51:11;;;;;;;64.70;26.25;;;-0.20;99.90;;;;;;5110665;28;20117;-74
2022/12/10 12:53:38;;;;;;;59.33;25.67;;;0.20;99.90;;;;;;5093808;28;20044;-74
2022/12/10 12:56:14;;;;;;;61.97;26.15;;;0.40;99.90;;;;;;5093564;28;20036;-74
2022/12/10 12:59:01;;;;;;;61.70;26.00;;;-0.20;99.90;;;;;;5110363;28;20055;-74
2022/12/10 13:01:51;;;;;;;64.03;29.30;;;-0.20;99.90;;;;;;5053276;28;20056;-74